VLG225 LEIB-LEPA
Flight info
| Callsign | VLG225 |
|---|---|
| Flight time | N/A |
| Altitude | 8000 |
| Route | LAMPA |
| Aircraft | A320/M-SDE3FGHIRWY/LB1 |
Departure
| Time | 2026-05-04 15:54 |
|---|---|
| Airport | Ibiza Airport (LEIB) |
Arrival
| Time | N/A |
|---|---|
| Airport | Palma de Mallorca Airport (LEPA) |
| Time | Latitude | Longitude | Altitude | Speed | Heading |
|---|---|---|---|---|---|
| 2026-05-04 15:07 | 38.87567 | 1.36915 | 9 ft | 0 kts | 333° |
| 2026-05-04 15:08 | 38.87566 | 1.36915 | 36 ft | 0 kts | 333° |
| 2026-05-04 15:09 | 38.87566 | 1.36916 | 36 ft | 0 kts | 333° |
| 2026-05-04 15:32 | 38.87565 | 1.36916 | 9 ft | 0 kts | 333° |
| 2026-05-04 15:45 | 38.87565 | 1.36917 | 9 ft | 1 kts | 333° |
| 2026-05-04 15:46 | 38.87544 | 1.36931 | 11 ft | 4 kts | 332° |
| 2026-05-04 15:46 | 38.87519 | 1.36946 | 10 ft | 4 kts | 345° |
| 2026-05-04 15:46 | 38.87499 | 1.36947 | 9 ft | 3 kts | 54° |
| 2026-05-04 15:46 | 38.87497 | 1.36943 | 10 ft | 3 kts | 63° |
| 2026-05-04 15:49 | 38.87508 | 1.36970 | 10 ft | 6 kts | 63° |
| 2026-05-04 15:49 | 38.87536 | 1.37039 | 10 ft | 11 kts | 62° |
| 2026-05-04 15:49 | 38.87581 | 1.37147 | 9 ft | 16 kts | 62° |
| 2026-05-04 15:49 | 38.87639 | 1.37289 | 9 ft | 20 kts | 62° |
| 2026-05-04 15:50 | 38.87690 | 1.37411 | 11 ft | 13 kts | 64° |
| 2026-05-04 15:50 | 38.87651 | 1.37512 | 9 ft | 16 kts | 152° |
| 2026-05-04 15:50 | 38.87588 | 1.37602 | 9 ft | 14 kts | 73° |
| 2026-05-04 15:50 | 38.87642 | 1.37725 | 9 ft | 18 kts | 62° |
| 2026-05-04 15:51 | 38.87708 | 1.37883 | 9 ft | 22 kts | 61° |
| 2026-05-04 15:51 | 38.87788 | 1.38075 | 9 ft | 26 kts | 61° |
| 2026-05-04 15:51 | 38.87865 | 1.38264 | 11 ft | 23 kts | 62° |
| 2026-05-04 15:51 | 38.87948 | 1.38464 | 9 ft | 28 kts | 62° |
| 2026-05-04 15:52 | 38.87984 | 1.38550 | 10 ft | 4 kts | 61° |
| 2026-05-04 15:52 | 38.88002 | 1.38607 | 9 ft | 9 kts | 84° |
| 2026-05-04 15:52 | 38.87953 | 1.38667 | 10 ft | 12 kts | 155° |
| 2026-05-04 15:52 | 38.87865 | 1.38691 | 12 ft | 11 kts | 194° |
| 2026-05-04 15:53 | 38.87835 | 1.38646 | 11 ft | 0 kts | 243° |
| 2026-05-04 15:53 | 38.87811 | 1.38585 | 14 ft | 27 kts | 243° |
| 2026-05-04 15:53 | 38.87577 | 1.38020 | 13 ft | 112 kts | 242° |
| 2026-05-04 15:53 | 38.87123 | 1.36937 | 333 ft | 148 kts | 240° |
| 2026-05-04 15:54 | 38.86554 | 1.35818 | 1275 ft | 151 kts | 228° |
| 2026-05-04 15:54 | 38.85811 | 1.34729 | 2067 ft | 174 kts | 229° |
| 2026-05-04 15:54 | 38.84962 | 1.33501 | 2938 ft | 189 kts | 230° |
| 2026-05-04 15:54 | 38.84061 | 1.32194 | 3687 ft | 201 kts | 230° |
| 2026-05-04 15:55 | 38.83131 | 1.30843 | 3925 ft | 203 kts | 230° |
| 2026-05-04 15:55 | 38.82199 | 1.29488 | 3990 ft | 201 kts | 230° |
| 2026-05-04 15:55 | 38.81148 | 1.28300 | 4002 ft | 203 kts | 214° |
| 2026-05-04 15:55 | 38.79825 | 1.27605 | 4010 ft | 218 kts | 197° |
| 2026-05-04 15:56 | 38.78156 | 1.27556 | 4601 ft | 257 kts | 175° |
| 2026-05-04 15:56 | 38.76360 | 1.27970 | 5746 ft | 266 kts | 174° |
| 2026-05-04 15:56 | 38.74514 | 1.28392 | 6902 ft | 273 kts | 174° |
| 2026-05-04 15:56 | 38.72619 | 1.28823 | 7558 ft | 278 kts | 174° |
| 2026-05-04 15:57 | 38.70716 | 1.29260 | 7822 ft | 278 kts | 174° |
| 2026-05-04 15:57 | 38.68813 | 1.29699 | 7936 ft | 278 kts | 174° |
| 2026-05-04 15:57 | 38.66912 | 1.30136 | 7951 ft | 277 kts | 174° |
| 2026-05-04 15:57 | 38.65040 | 1.30567 | 7957 ft | 277 kts | 174° |
| 2026-05-04 15:58 | 38.63149 | 1.31004 | 7952 ft | 275 kts | 175° |
| 2026-05-04 15:58 | 38.61274 | 1.31547 | 7955 ft | 279 kts | 165° |
| 2026-05-04 15:58 | 38.59596 | 1.32838 | 7956 ft | 289 kts | 143° |
| 2026-05-04 15:58 | 38.58384 | 1.34927 | 7956 ft | 299 kts | 118° |
| 2026-05-04 15:59 | 38.57843 | 1.37523 | 7960 ft | 306 kts | 103° |
| 2026-05-04 15:59 | 38.57500 | 1.40207 | 7958 ft | 306 kts | 102° |
| 2026-05-04 15:59 | 38.57170 | 1.42886 | 7958 ft | 306 kts | 102° |
| 2026-05-04 15:59 | 38.56840 | 1.45566 | 7958 ft | 306 kts | 102° |
| 2026-05-04 16:00 | 38.56505 | 1.48252 | 7959 ft | 305 kts | 102° |
| 2026-05-04 16:00 | 38.56163 | 1.50932 | 7961 ft | 306 kts | 103° |
| 2026-05-04 16:00 | 38.55821 | 1.53599 | 7957 ft | 305 kts | 103° |
| 2026-05-04 16:00 | 38.55552 | 1.56305 | 7961 ft | 308 kts | 94° |
| 2026-05-04 16:01 | 38.55802 | 1.59030 | 7962 ft | 311 kts | 76° |
| 2026-05-04 16:01 | 38.56641 | 1.61572 | 7962 ft | 312 kts | 58° |
| 2026-05-04 16:01 | 38.57995 | 1.63717 | 7962 ft | 312 kts | 43° |
| 2026-05-04 16:01 | 38.59524 | 1.65673 | 7961 ft | 312 kts | 44° |
| 2026-05-04 16:02 | 38.61057 | 1.67645 | 7961 ft | 312 kts | 44° |
| 2026-05-04 16:02 | 38.62584 | 1.69614 | 7958 ft | 312 kts | 44° |
| 2026-05-04 16:02 | 38.65642 | 1.73555 | 7956 ft | 312 kts | 44° |
| 2026-05-04 16:03 | 38.67177 | 1.75532 | 7956 ft | 312 kts | 44° |
| 2026-05-04 16:03 | 38.68705 | 1.77503 | 7956 ft | 312 kts | 44° |
| 2026-05-04 16:03 | 38.70233 | 1.79482 | 7955 ft | 313 kts | 44° |
| 2026-05-04 16:03 | 38.71760 | 1.81463 | 7957 ft | 313 kts | 44° |
| 2026-05-04 16:04 | 38.73285 | 1.83445 | 7951 ft | 312 kts | 44° |
| 2026-05-04 16:04 | 38.76334 | 1.87406 | 7946 ft | 313 kts | 44° |
| 2026-05-04 16:04 | 38.77865 | 1.89392 | 7945 ft | 312 kts | 44° |
| 2026-05-04 16:05 | 38.79391 | 1.91374 | 7941 ft | 313 kts | 44° |
| 2026-05-04 16:05 | 38.80829 | 1.93465 | 7947 ft | 313 kts | 52° |
| 2026-05-04 16:05 | 38.83504 | 1.97878 | 7948 ft | 314 kts | 51° |
| 2026-05-04 16:06 | 38.84844 | 2.00086 | 7949 ft | 313 kts | 51° |
| 2026-05-04 16:06 | 38.88406 | 2.05961 | 7951 ft | 314 kts | 51° |
| 2026-05-04 16:07 | 38.90201 | 2.08924 | 7944 ft | 314 kts | 52° |
| 2026-05-04 16:07 | 38.94218 | 2.15580 | 7945 ft | 314 kts | 52° |
| 2026-05-04 16:08 | 38.95556 | 2.17802 | 7948 ft | 314 kts | 52° |
| 2026-05-04 16:08 | 38.99552 | 2.24437 | 7947 ft | 314 kts | 52° |
| 2026-05-04 16:09 | 39.02221 | 2.28883 | 7942 ft | 314 kts | 52° |
| 2026-05-04 16:09 | 39.04888 | 2.33319 | 7943 ft | 313 kts | 52° |
| 2026-05-04 16:10 | 39.07749 | 2.37507 | 7948 ft | 312 kts | 38° |
| 2026-05-04 16:11 | 39.12771 | 2.42865 | 7945 ft | 312 kts | 38° |
| 2026-05-04 16:11 | 39.14445 | 2.44648 | 7950 ft | 312 kts | 38° |
| 2026-05-04 16:12 | 39.19467 | 2.50004 | 7952 ft | 312 kts | 38° |
| 2026-05-04 16:12 | 39.24457 | 2.55342 | 7532 ft | 307 kts | 38° |
| 2026-05-04 16:13 | 39.27748 | 2.58865 | 7291 ft | 309 kts | 38° |
| 2026-05-04 16:13 | 39.31050 | 2.62399 | 7055 ft | 307 kts | 38° |
| 2026-05-04 16:14 | 39.34325 | 2.65925 | 6822 ft | 304 kts | 38° |
| 2026-05-04 16:14 | 39.37573 | 2.69413 | 6588 ft | 303 kts | 38° |
| 2026-05-04 16:15 | 39.42176 | 2.74933 | 6153 ft | 301 kts | 58° |
| 2026-05-04 16:16 | 39.44443 | 2.79450 | 5418 ft | 296 kts | 59° |
| 2026-05-04 16:16 | 39.47407 | 2.86407 | 4988 ft | 295 kts | 62° |
| 2026-05-04 16:17 | 39.49355 | 2.91085 | 4978 ft | 296 kts | 62° |
| 2026-05-04 16:18 | 39.52261 | 2.98076 | 4638 ft | 292 kts | 62° |
| 2026-05-04 16:18 | 39.53211 | 3.00384 | 4322 ft | 289 kts | 62° |
| 2026-05-04 16:19 | 39.57034 | 3.06241 | 3394 ft | 279 kts | 42° |
| 2026-05-04 16:19 | 39.59836 | 3.09400 | 3137 ft | 252 kts | 23° |
| 2026-05-04 16:20 | 39.63550 | 3.07744 | 2964 ft | 176 kts | 287° |
| 2026-05-04 16:20 | 39.64340 | 3.04849 | 2972 ft | 166 kts | 282° |
| 2026-05-04 16:21 | 39.65285 | 3.01150 | 2962 ft | 124 kts | 274° |
| 2026-05-04 16:22 | 39.64981 | 2.99124 | 2967 ft | 116 kts | 241° |
| 2026-05-04 16:22 | 39.63852 | 2.96354 | 2976 ft | 116 kts | 239° |
| 2026-05-04 16:23 | 39.62683 | 2.93607 | 2974 ft | 116 kts | 239° |
| 2026-05-04 16:24 | 39.61221 | 2.90137 | 2984 ft | 140 kts | 239° |
| 2026-05-04 16:25 | 39.60252 | 2.87875 | 2829 ft | 140 kts | 239° |
| 2026-05-04 16:26 | 39.58283 | 2.83323 | 2485 ft | 148 kts | 239° |
| 2026-05-04 16:26 | 39.56762 | 2.79831 | 2509 ft | 149 kts | 239° |
| 2026-05-04 16:27 | 39.55752 | 2.77520 | 2820 ft | 147 kts | 240° |
| 2026-05-04 16:28 | 39.54087 | 2.74118 | 3006 ft | 150 kts | 224° |
| 2026-05-04 16:28 | 39.50990 | 2.75142 | 3008 ft | 175 kts | 152° |
| 2026-05-04 16:29 | 39.48721 | 2.79923 | 3014 ft | 188 kts | 67° |
| 2026-05-04 16:30 | 39.50541 | 2.84469 | 2990 ft | 189 kts | 63° |
| 2026-05-04 16:31 | 39.51792 | 2.87469 | 2998 ft | 188 kts | 62° |
| 2026-05-04 16:31 | 39.53880 | 2.91770 | 2978 ft | 189 kts | 44° |
| 2026-05-04 16:32 | 39.56695 | 2.95248 | 2461 ft | 188 kts | 42° |
| 2026-05-04 16:33 | 39.58856 | 2.96940 | 2471 ft | 183 kts | 353° |
| 2026-05-04 16:33 | 39.60510 | 2.95096 | 2474 ft | 158 kts | 285° |
| 2026-05-04 16:34 | 39.61252 | 2.92411 | 2473 ft | 158 kts | 282° |
| 2026-05-04 16:34 | 39.61609 | 2.91066 | 2473 ft | 157 kts | 283° |
| 2026-05-04 16:35 | 39.62630 | 2.87107 | 2484 ft | 154 kts | 282° |
| 2026-05-04 16:35 | 39.63084 | 2.83207 | 2486 ft | 145 kts | 232° |
| 2026-05-04 16:36 | 39.62238 | 2.82501 | 2485 ft | 148 kts | 206° |
| 2026-05-04 16:36 | 39.60272 | 2.81600 | 2730 ft | 151 kts | 202° |
| 2026-05-04 16:37 | 39.58209 | 2.81492 | 2981 ft | 165 kts | 159° |
| 2026-05-04 16:37 | 39.57225 | 2.82278 | 2983 ft | 166 kts | 153° |
| 2026-05-04 16:37 | 39.55313 | 2.83968 | 2985 ft | 166 kts | 152° |
| 2026-05-04 16:38 | 39.53535 | 2.85862 | 2994 ft | 177 kts | 124° |
| 2026-05-04 16:39 | 39.54174 | 2.90710 | 2976 ft | 188 kts | 72° |
| 2026-05-04 16:39 | 39.55065 | 2.93921 | 2973 ft | 189 kts | 72° |
| 2026-05-04 16:40 | 39.55967 | 2.97116 | 2972 ft | 190 kts | 72° |
| 2026-05-04 16:40 | 39.57387 | 3.00003 | 2974 ft | 191 kts | 53° |
| 2026-05-04 16:41 | 39.59014 | 3.02755 | 2976 ft | 193 kts | 53° |
| 2026-05-04 16:41 | 39.61458 | 3.06848 | 2972 ft | 190 kts | 52° |
| 2026-05-04 16:42 | 39.63868 | 3.10951 | 2972 ft | 191 kts | 52° |
| 2026-05-04 16:43 | 39.65490 | 3.13702 | 2971 ft | 192 kts | 52° |
| 2026-05-04 16:43 | 39.67337 | 3.16096 | 2975 ft | 187 kts | 14° |
| 2026-05-04 16:43 | 39.68582 | 3.16118 | 2973 ft | 174 kts | 334° |
| 2026-05-04 16:44 | 39.69998 | 3.11075 | 2970 ft | 153 kts | 272° |
| 2026-05-04 16:45 | 39.70297 | 3.08328 | 2971 ft | 153 kts | 272° |
| 2026-05-04 16:46 | 39.70712 | 3.04256 | 2972 ft | 153 kts | 272° |
| 2026-05-04 16:46 | 39.70992 | 3.01490 | 2972 ft | 157 kts | 272° |
| 2026-05-04 16:47 | 39.70516 | 2.98956 | 2976 ft | 151 kts | 215° |
| 2026-05-04 16:47 | 39.68863 | 2.97388 | 2973 ft | 149 kts | 234° |